Time;durP1;ratioP1;P1;durP2;ratioP2;P2;SDS_P1;SDS_P2;PMS_P1;PMS_P2;Temp;Humidity;BMP_temperature;BMP_pressure;BME280_temperature;BME280_humidity;BME280_pressure;Samples;Min_cycle;Max_cycle;Signal;HPM_P1;HPM_P2
2024/01/20 00:02:22;;;;;;;4.20;1.65;;;3.10;99.90;;;;;;6349698;22;20085;-87
2024/01/20 00:04:47;;;;;;;5.07;1.48;;;3.00;99.90;;;;;;6344014;22;20013;-87
2024/01/20 00:07:13;;;;;;;8.38;1.88;;;3.00;99.90;;;;;;6343452;22;20025;-87
2024/01/20 00:09:39;;;;;;;11.43;2.72;;;3.00;99.90;;;;;;6343493;22;20069;-87
2024/01/20 00:12:05;;;;;;;2.45;1.33;;;3.00;99.90;;;;;;6343607;22;20077;-89
2024/01/20 00:14:30;;;;;;;4.88;1.60;;;3.00;99.90;;;;;;6342985;22;20002;-88
2024/01/20 00:16:56;;;;;;;3.13;1.25;;;3.00;99.90;;;;;;6342909;22;20075;-88
2024/01/20 00:19:22;;;;;;;10.68;3.45;;;3.00;99.90;;;;;;6342495;22;20013;-89
2024/01/20 00:21:47;;;;;;;7.75;1.73;;;3.00;99.90;;;;;;6342543;22;20055;-88
2024/01/20 00:24:13;;;;;;;6.22;1.70;;;3.00;99.90;;;;;;6342606;22;20006;-88
2024/01/20 00:26:39;;;;;;;7.00;2.28;;;3.00;99.90;;;;;;6343508;22;20009;-87
2024/01/20 00:29:06;;;;;;;6.22;2.08;;;3.00;99.90;;;;;;6343216;22;20041;-89
2024/01/20 00:31:31;;;;;;;13.45;2.10;;;3.00;99.90;;;;;;6370485;22;20002;-87
2024/01/20 00:33:57;;;;;;;9.95;2.50;;;3.00;99.90;;;;;;6342379;22;20010;-87
2024/01/20 00:36:23;;;;;;;7.95;2.10;;;2.90;99.90;;;;;;6342711;22;20444;-87
2024/01/20 00:38:49;;;;;;;3.28;1.30;;;2.90;99.90;;;;;;6370237;22;20421;-88
2024/01/20 00:41:14;;;;;;;10.02;2.30;;;2.90;99.90;;;;;;6342878;22;20013;-87
2024/01/20 00:43:41;;;;;;;7.43;2.20;;;2.90;99.90;;;;;;6370675;22;20006;-88
2024/01/20 00:46:06;;;;;;;6.88;2.47;;;2.90;99.90;;;;;;6342457;22;20051;-87
2024/01/20 00:48:32;;;;;;;5.65;1.60;;;2.90;99.90;;;;;;6341949;22;20037;-87
2024/01/20 00:50:58;;;;;;;4.78;1.70;;;2.90;99.90;;;;;;6342416;22;19998;-87
2024/01/20 00:53:23;;;;;;;4.85;2.10;;;2.90;99.90;;;;;;6342306;22;20017;-89
2024/01/20 00:55:49;;;;;;;5.60;2.10;;;2.90;99.90;;;;;;6342127;22;20048;-89
2024/01/20 00:58:15;;;;;;;5.63;2.03;;;2.90;99.90;;;;;;6370065;22;20101;-88
2024/01/20 01:00:40;;;;;;;7.50;2.40;;;2.90;99.90;;;;;;6341959;22;20002;-89
2024/01/20 01:03:07;;;;;;;4.57;2.10;;;2.90;99.90;;;;;;6341847;22;20067;-89
2024/01/20 01:05:33;;;;;;;6.68;2.55;;;2.90;99.90;;;;;;6341825;22;19999;-88
2024/01/20 01:07:59;;;;;;;8.00;2.85;;;2.90;99.90;;;;;;6342054;22;20029;-88
2024/01/20 01:10:25;;;;;;;3.20;1.58;;;2.90;99.90;;;;;;6342462;22;20006;-88
2024/01/20 01:12:51;;;;;;;9.70;2.30;;;2.80;99.90;;;;;;6341814;22;20011;-88
2024/01/20 01:15:16;;;;;;;5.93;1.85;;;2.90;99.90;;;;;;6341533;22;20029;-89
2024/01/20 01:17:42;;;;;;;6.85;1.85;;;2.90;99.90;;;;;;6341797;22;20010;-89
2024/01/20 01:20:09;;;;;;;5.70;1.83;;;2.90;99.90;;;;;;6342154;22;20002;-87
2024/01/20 01:22:34;;;;;;;4.07;1.20;;;2.90;99.90;;;;;;6341792;22;20077;-89
2024/01/20 01:25:00;;;;;;;6.50;2.80;;;2.90;99.90;;;;;;6341551;22;20057;-88
2024/01/20 01:27:26;;;;;;;4.68;2.22;;;2.90;99.90;;;;;;6341833;22;19998;-88
2024/01/20 01:29:52;;;;;;;7.78;1.98;;;2.90;99.90;;;;;;6341655;22;20082;-88
2024/01/20 01:32:18;;;;;;;2.22;1.15;;;2.90;99.90;;;;;;6341244;22;19999;-88
2024/01/20 01:34:44;;;;;;;6.63;1.40;;;2.90;99.90;;;;;;6340281;22;20006;-89
2024/01/20 01:37:10;;;;;;;5.65;1.88;;;2.90;99.90;;;;;;6339947;22;20415;-90
2024/01/20 01:39:36;;;;;;;6.20;1.70;;;2.90;99.90;;;;;;6339391;22;20006;-89
2024/01/20 01:42:02;;;;;;;6.03;2.22;;;2.90;99.90;;;;;;6339762;22;20302;-88
2024/01/20 01:44:27;;;;;;;5.78;2.65;;;2.90;99.90;;;;;;6339244;22;20010;-88
2024/01/20 01:46:53;;;;;;;3.25;2.08;;;3.00;99.90;;;;;;6313295;22;20043;-88
2024/01/20 01:49:22;;;;;;;4.63;1.45;;;3.00;99.90;;;;;;6339544;22;20421;-88
2024/01/20 01:51:48;;;;;;;6.93;1.60;;;3.00;99.90;;;;;;6368625;22;20107;-88
2024/01/20 01:54:15;;;;;;;6.68;2.28;;;3.00;99.90;;;;;;6342185;22;20325;-88
2024/01/20 01:56:43;;;;;;;3.55;1.33;;;3.00;99.90;;;;;;6342034;22;20089;-89
2024/01/20 01:59:09;;;;;;;6.47;1.58;;;3.00;99.90;;;;;;6342339;22;20010;-88
2024/01/20 02:01:35;;;;;;;4.60;1.55;;;3.00;99.90;;;;;;6342266;22;20021;-88
2024/01/20 02:04:00;;;;;;;9.13;2.35;;;3.00;99.90;;;;;;6342325;22;20010;-89
2024/01/20 02:06:26;;;;;;;4.45;1.48;;;3.00;99.90;;;;;;6342329;22;20002;-89
2024/01/20 02:08:52;;;;;;;5.25;1.63;;;3.00;99.90;;;;;;6342600;22;20460;-88
2024/01/20 02:11:18;;;;;;;2.92;1.52;;;3.10;99.90;;;;;;6343747;22;20350;-89
2024/01/20 02:13:44;;;;;;;7.70;2.50;;;3.00;99.90;;;;;;6343246;22;20033;-88
2024/01/20 02:16:10;;;;;;;2.63;1.90;;;3.00;99.90;;;;;;6342837;22;19999;-88
2024/01/20 02:18:35;;;;;;;2.50;1.48;;;3.00;99.90;;;;;;6342469;22;20049;-88
2024/01/20 02:21:04;;;;;;;7.82;3.13;;;3.00;99.90;;;;;;6342520;22;20055;-88
2024/01/20 02:23:32;;;;;;;6.47;2.22;;;3.00;99.90;;;;;;6342587;22;20081;-88
2024/01/20 02:25:58;;;;;;;4.97;2.65;;;3.00;99.90;;;;;;6350357;22;19999;-87
2024/01/20 02:28:23;;;;;;;4.70;1.95;;;3.00;99.90;;;;;;6361422;22;20071;-88
2024/01/20 02:30:49;;;;;;;4.20;2.08;;;3.00;99.90;;;;;;6355294;22;20018;-87
2024/01/20 02:33:15;;;;;;;5.03;2.42;;;3.00;99.90;;;;;;6341676;22;20463;-88
2024/01/20 02:35:40;;;;;;;4.72;2.10;;;3.00;99.90;;;;;;6341635;22;20010;-88
2024/01/20 02:38:07;;;;;;;7.53;2.63;;;3.00;99.90;;;;;;6344492;22;20327;-89
2024/01/20 02:40:33;;;;;;;4.18;2.65;;;3.00;99.90;;;;;;6344035;22;20002;-88
2024/01/20 02:42:58;;;;;;;7.45;2.65;;;2.90;99.90;;;;;;6344403;22;20002;-88
2024/01/20 02:45:24;;;;;;;10.07;3.08;;;2.90;99.90;;;;;;6344249;22;19999;-88
2024/01/20 02:47:51;;;;;;;5.63;2.88;;;2.90;99.90;;;;;;6346073;22;20067;-87
2024/01/20 02:50:17;;;;;;;8.02;3.00;;;2.90;99.90;;;;;;6345806;22;20009;-88
2024/01/20 02:52:42;;;;;;;10.00;3.25;;;2.90;99.90;;;;;;6345214;22;20002;-86
2024/01/20 02:55:08;;;;;;;7.60;2.92;;;2.90;99.90;;;;;;6346805;22;20412;-88
2024/01/20 02:57:34;;;;;;;10.15;3.22;;;2.90;99.90;;;;;;6344646;22;20006;-88
2024/01/20 02:59:59;;;;;;;6.85;3.67;;;2.90;99.90;;;;;;6344987;22;20002;-88
2024/01/20 03:02:25;;;;;;;8.50;2.83;;;2.90;99.90;;;;;;6344687;22;20043;-88
2024/01/20 03:04:51;;;;;;;9.73;3.55;;;2.90;99.90;;;;;;6343936;22;20007;-88
2024/01/20 03:07:17;;;;;;;7.88;3.38;;;2.90;99.90;;;;;;6343793;22;20013;-87
2024/01/20 03:09:43;;;;;;;7.40;3.35;;;2.90;99.90;;;;;;6344043;22;20009;-88
2024/01/20 03:12:09;;;;;;;10.25;3.45;;;2.90;99.90;;;;;;6356123;22;20002;-88
2024/01/20 03:14:35;;;;;;;14.35;3.00;;;2.90;99.90;;;;;;6361726;22;19999;-88
2024/01/20 03:17:01;;;;;;;10.88;3.70;;;2.90;99.90;;;;;;6361207;22;20037;-88
2024/01/20 03:19:26;;;;;;;7.45;3.17;;;2.90;99.90;;;;;;6321357;22;20002;-88
2024/01/20 03:21:52;;;;;;;6.35;3.08;;;2.90;99.90;;;;;;6342814;22;20002;-88
2024/01/20 03:24:19;;;;;;;10.52;3.13;;;2.90;99.90;;;;;;6342599;22;20101;-87
2024/01/20 03:26:46;;;;;;;7.65;3.17;;;2.90;99.90;;;;;;6342934;22;19998;-88
2024/01/20 03:29:12;;;;;;;6.82;3.38;;;2.90;99.90;;;;;;6342776;22;20013;-88
2024/01/20 03:31:38;;;;;;;12.05;3.50;;;2.90;99.90;;;;;;6342647;22;20003;-88
2024/01/20 03:34:03;;;;;;;9.43;4.50;;;2.90;99.90;;;;;;6342927;22;19998;-89
2024/01/20 03:36:29;;;;;;;8.70;3.55;;;2.90;99.90;;;;;;6343411;22;20002;-88
2024/01/20 03:38:55;;;;;;;8.38;3.05;;;2.90;99.90;;;;;;6343645;22;20447;-89
2024/01/20 03:41:20;;;;;;;5.22;2.15;;;2.90;99.90;;;;;;6343340;22;20010;-88
2024/01/20 03:43:46;;;;;;;6.18;3.45;;;2.80;99.90;;;;;;6342987;22;20318;-88
2024/01/20 03:46:12;;;;;;;4.63;2.30;;;2.80;99.90;;;;;;6343145;22;20051;-88
2024/01/20 03:48:39;;;;;;;6.85;2.83;;;2.80;99.90;;;;;;6342774;22;20013;-88
2024/01/20 03:51:04;;;;;;;8.25;3.38;;;2.80;99.90;;;;;;6370893;22;20417;-89
2024/01/20 03:53:30;;;;;;;8.90;2.47;;;2.80;99.90;;;;;;6342884;22;20095;-89
2024/01/20 03:55:56;;;;;;;7.00;3.05;;;2.80;99.90;;;;;;6342931;22;20412;-88
2024/01/20 03:58:21;;;;;;;10.85;3.33;;;2.80;99.90;;;;;;6343004;22;20011;-88
2024/01/20 04:00:47;;;;;;;7.90;2.88;;;2.80;99.90;;;;;;6343102;22;20003;-87
2024/01/20 04:03:13;;;;;;;8.00;3.10;;;2.70;99.90;;;;;;6342704;22;20487;-88
2024/01/20 04:05:40;;;;;;;3.17;1.58;;;2.70;99.90;;;;;;6342719;22;20026;-88
2024/01/20 04:08:06;;;;;;;3.05;2.22;;;2.70;99.90;;;;;;6342629;22;20006;-87
2024/01/20 04:10:32;;;;;;;3.17;1.83;;;2.70;99.90;;;;;;6342493;22;20013;-87
2024/01/20 04:12:57;;;;;;;9.13;2.70;;;2.70;99.90;;;;;;6342547;22;20310;-88
2024/01/20 04:15:23;;;;;;;8.85;2.60;;;2.70;99.90;;;;;;6343091;22;20011;-87
2024/01/20 04:17:49;;;;;;;4.80;2.60;;;2.70;99.90;;;;;;6343122;22;20061;-87
2024/01/20 04:20:14;;;;;;;2.97;1.95;;;2.70;99.90;;;;;;6343147;22;20081;-88
2024/01/20 04:22:40;;;;;;;8.15;2.70;;;2.70;99.90;;;;;;6342809;22;19999;-87
2024/01/20 04:25:06;;;;;;;6.55;2.55;;;2.70;99.90;;;;;;6342488;22;20449;-86
2024/01/20 04:27:33;;;;;;;4.85;2.17;;;2.70;99.90;;;;;;6342696;22;20026;-89
2024/01/20 04:30:00;;;;;;;8.63;2.30;;;2.70;99.90;;;;;;6342588;22;20006;-87
2024/01/20 04:32:25;;;;;;;5.47;2.50;;;2.70;99.90;;;;;;6342665;22;20041;-86
2024/01/20 04:34:51;;;;;;;3.70;2.30;;;2.70;99.90;;;;;;6342531;22;20010;-87
2024/01/20 04:37:16;;;;;;;3.92;2.13;;;2.70;99.90;;;;;;6342356;22;20075;-87
2024/01/20 04:39:45;;;;;;;6.70;2.13;;;2.70;99.90;;;;;;6342364;22;20047;-89
2024/01/20 04:42:11;;;;;;;4.88;2.35;;;2.70;99.90;;;;;;6342810;22;20002;-88
2024/01/20 04:44:37;;;;;;;5.82;2.17;;;2.70;99.90;;;;;;6342736;22;20013;-89
2024/01/20 04:47:03;;;;;;;6.15;2.13;;;2.70;99.90;;;;;;6342783;22;20070;-89
2024/01/20 04:49:28;;;;;;;5.07;2.30;;;2.70;99.90;;;;;;6342488;22;20016;-88
2024/01/20 04:51:57;;;;;;;6.55;2.20;;;2.70;99.90;;;;;;6342315;22;20049;-88
2024/01/20 04:54:22;;;;;;;6.35;2.13;;;2.70;99.90;;;;;;6342605;22;20441;-88
2024/01/20 04:56:48;;;;;;;5.90;1.90;;;2.70;99.90;;;;;;6342387;22;20015;-87
2024/01/20 04:59:14;;;;;;;9.02;2.42;;;2.70;99.90;;;;;;6342219;22;20487;-88
2024/01/20 05:01:39;;;;;;;7.47;2.05;;;2.70;99.90;;;;;;6342556;22;20002;-88
2024/01/20 05:04:05;;;;;;;6.97;2.45;;;2.70;99.90;;;;;;6370403;22;20008;-88
2024/01/20 05:06:31;;;;;;;7.63;1.80;;;2.70;99.90;;;;;;6342244;22;20013;-88
2024/01/20 05:08:56;;;;;;;15.60;3.55;;;2.60;99.90;;;;;;6342891;22;20010;-86
2024/01/20 05:11:22;;;;;;;9.43;2.13;;;2.60;99.90;;;;;;6342733;22;20029;-89
2024/01/20 05:13:48;;;;;;;7.50;1.85;;;2.60;99.90;;;;;;6342140;22;20010;-88
2024/01/20 05:16:15;;;;;;;6.35;2.25;;;2.70;99.90;;;;;;6342359;22;20105;-87
2024/01/20 05:18:41;;;;;;;6.07;1.98;;;2.60;99.90;;;;;;6342420;22;20014;-87
2024/01/20 05:21:13;;;;;;;6.93;1.88;;;2.60;99.90;;;;;;6342258;22;20121;-87
2024/01/20 05:23:39;;;;;;;14.50;2.38;;;2.60;99.90;;;;;;6342068;22;20045;-88
2024/01/20 05:26:05;;;;;;;3.47;1.60;;;2.60;99.90;;;;;;6343206;22;20083;-87
2024/01/20 05:28:31;;;;;;;5.43;1.83;;;2.60;99.90;;;;;;6342992;22;20058;-87
2024/01/20 05:30:56;;;;;;;5.93;1.92;;;2.60;99.90;;;;;;6342324;22;20379;-87
2024/01/20 05:33:22;;;;;;;2.28;1.48;;;2.60;99.90;;;;;;6342294;22;19994;-87
2024/01/20 05:35:47;;;;;;;8.32;2.17;;;2.60;99.90;;;;;;6342700;22;20070;-88
2024/01/20 05:38:14;;;;;;;3.85;1.80;;;2.60;99.90;;;;;;6343819;22;20044;-88
2024/01/20 05:40:40;;;;;;;4.43;1.20;;;2.60;99.90;;;;;;6344367;22;20081;-87
2024/01/20 05:43:06;;;;;;;2.78;1.40;;;2.50;99.90;;;;;;6345251;22;20002;-88
2024/01/20 05:45:32;;;;;;;6.65;1.25;;;2.50;99.90;;;;;;6342774;22;20011;-87
2024/01/20 05:47:58;;;;;;;7.25;1.60;;;2.50;99.90;;;;;;6342291;22;20010;-88
2024/01/20 05:50:23;;;;;;;5.07;1.40;;;2.50;99.90;;;;;;6341852;22;20539;-89
2024/01/20 05:52:50;;;;;;;3.95;1.40;;;2.50;99.90;;;;;;6342356;22;20002;-88
2024/01/20 05:55:16;;;;;;;8.48;2.42;;;2.50;99.90;;;;;;6341784;22;20077;-88
2024/01/20 05:57:42;;;;;;;4.35;1.20;;;2.60;99.90;;;;;;6310184;22;20042;-88
2024/01/20 06:00:09;;;;;;;4.35;1.20;;;2.60;99.90;;;;;;6311231;22;20453;-87
2024/01/20 06:02:37;;;;;;;5.40;1.10;;;2.60;99.90;;;;;;6310596;22;20086;-88
2024/01/20 06:05:02;;;;;;;3.92;1.17;;;2.60;99.90;;;;;;6310770;22;20052;-88
2024/01/20 06:07:28;;;;;;;6.85;1.40;;;2.60;99.90;;;;;;6310154;22;20006;-88
2024/01/20 06:09:54;;;;;;;4.18;1.25;;;2.60;99.90;;;;;;6310357;22;20455;-88
2024/01/20 06:12:19;;;;;;;3.60;1.67;;;2.70;99.90;;;;;;6337714;22;20003;-88
2024/01/20 06:14:45;;;;;;;3.20;1.38;;;2.60;99.90;;;;;;6310385;22;20002;-88
2024/01/20 06:17:11;;;;;;;0.98;0.77;;;2.60;99.90;;;;;;6311215;22;20060;-89
2024/01/20 06:19:37;;;;;;;3.13;1.50;;;2.60;99.90;;;;;;6311136;22;20422;-88
2024/01/20 06:22:02;;;;;;;4.75;1.10;;;2.70;99.90;;;;;;6311157;22;20002;-88
2024/01/20 06:24:30;;;;;;;5.28;1.65;;;2.70;99.90;;;;;;6338290;22;20003;-88
2024/01/20 06:26:56;;;;;;;1.90;1.00;;;2.70;99.90;;;;;;6311181;22;20006;-88
2024/01/20 06:29:21;;;;;;;1.73;0.80;;;2.70;99.90;;;;;;6311641;22;20007;-88
2024/01/20 06:31:47;;;;;;;5.07;1.35;;;2.80;99.90;;;;;;6314707;22;20086;-88
2024/01/20 06:34:13;;;;;;;3.58;0.80;;;2.80;99.90;;;;;;6339850;22;20014;-88
2024/01/20 06:36:38;;;;;;;2.80;1.35;;;2.80;99.90;;;;;;6311195;22;20444;-88
2024/01/20 06:39:04;;;;;;;8.43;1.17;;;2.90;99.90;;;;;;6310110;22;20010;-88
2024/01/20 06:41:31;;;;;;;7.43;1.40;;;2.80;99.90;;;;;;6338340;22;20276;-88
2024/01/20 06:43:57;;;;;;;4.75;1.45;;;2.90;99.90;;;;;;6310133;22;20410;-89
2024/01/20 06:46:23;;;;;;;2.95;0.95;;;2.80;99.90;;;;;;6310732;22;19999;-88
2024/01/20 06:48:50;;;;;;;6.18;1.17;;;2.80;99.90;;;;;;6310678;22;20007;-89
2024/01/20 06:51:16;;;;;;;5.13;0.85;;;2.90;99.90;;;;;;6309544;22;20096;-87
2024/01/20 06:53:43;;;;;;;5.40;1.98;;;2.90;99.90;;;;;;6337974;22;20539;-89
2024/01/20 06:56:09;;;;;;;4.40;1.23;;;2.90;99.90;;;;;;6316456;22;20400;-88
2024/01/20 06:58:35;;;;;;;2.90;0.77;;;2.90;99.90;;;;;;6336196;22;20097;-89
2024/01/20 07:01:01;;;;;;;6.53;1.00;;;2.90;99.90;;;;;;6336217;22;20082;-89
2024/01/20 07:03:26;;;;;;;3.63;0.90;;;2.90;99.90;;;;;;6335768;22;20340;-89
2024/01/20 07:05:52;;;;;;;3.90;1.38;;;2.90;99.90;;;;;;6335778;22;20003;-90
2024/01/20 07:08:18;;;;;;;5.97;1.58;;;3.00;99.90;;;;;;6336317;22;20006;-89
2024/01/20 07:10:44;;;;;;;2.67;1.13;;;3.00;99.90;;;;;;6336879;22;19995;-88
2024/01/20 07:13:10;;;;;;;5.95;1.27;;;3.00;99.90;;;;;;6336282;22;20543;-89
2024/01/20 07:15:35;;;;;;;3.15;1.05;;;3.00;99.90;;;;;;6336194;22;20379;-88
2024/01/20 07:18:01;;;;;;;4.10;0.75;;;3.00;99.90;;;;;;6336435;22;20021;-88
2024/01/20 07:20:27;;;;;;;4.25;0.90;;;3.10;99.90;;;;;;6336398;22;20007;-88
2024/01/20 07:22:52;;;;;;;2.50;0.82;;;3.10;99.90;;;;;;6335893;22;20056;-89
2024/01/20 07:25:18;;;;;;;1.42;0.60;;;3.10;99.90;;;;;;6337833;22;20011;-89
2024/01/20 07:27:45;;;;;;;6.60;1.35;;;3.10;99.90;;;;;;6338086;22;19999;-88
2024/01/20 07:30:11;;;;;;;3.55;1.20;;;3.10;99.90;;;;;;6337776;22;20022;-88
2024/01/20 07:32:41;;;;;;;0.93;0.73;;;3.20;99.90;;;;;;6337664;22;19995;-89
2024/01/20 07:35:08;;;;;;;4.32;0.90;;;3.20;99.90;;;;;;6338307;22;20089;-88
2024/01/20 07:37:37;;;;;;;3.72;0.90;;;3.20;99.90;;;;;;6312243;22;20323;-88
2024/01/20 07:40:04;;;;;;;6.88;1.17;;;3.30;99.90;;;;;;6337553;22;20495;-88
2024/01/20 07:42:32;;;;;;;3.80;0.50;;;3.30;99.90;;;;;;6337191;22;20504;-89
2024/01/20 07:44:59;;;;;;;4.18;0.85;;;3.30;99.90;;;;;;6337877;22;20077;-88
2024/01/20 07:47:24;;;;;;;3.70;0.90;;;3.40;99.90;;;;;;6337384;22;20006;-89
2024/01/20 07:49:50;;;;;;;2.70;0.75;;;3.40;99.90;;;;;;6339596;22;20003;-88
2024/01/20 07:52:16;;;;;;;4.35;0.75;;;3.40;99.90;;;;;;6337497;22;20082;-88
2024/01/20 07:54:42;;;;;;;3.10;1.30;;;3.30;99.90;;;;;;6337354;22;20599;-89
2024/01/20 07:57:07;;;;;;;3.45;1.30;;;3.40;99.90;;;;;;6337556;22;20017;-89
2024/01/20 07:59:33;;;;;;;3.70;0.98;;;3.40;99.90;;;;;;6337714;22;20021;-89
2024/01/20 08:01:58;;;;;;;4.97;0.98;;;3.40;99.90;;;;;;6337911;22;20003;-89
2024/01/20 08:04:24;;;;;;;4.93;1.10;;;3.40;99.90;;;;;;6337803;22;20422;-92
2024/01/20 08:06:50;;;;;;;5.63;1.33;;;3.40;99.90;;;;;;6337289;22;20007;-88
2024/01/20 08:09:16;;;;;;;3.83;1.02;;;3.40;99.90;;;;;;6337631;22;20094;-86
2024/01/20 08:11:42;;;;;;;6.38;1.05;;;3.40;99.90;;;;;;6337887;22;20007;-87
2024/01/20 08:14:07;;;;;;;3.47;0.73;;;3.40;99.90;;;;;;6337233;22;20409;-88
2024/01/20 08:16:33;;;;;;;5.30;0.98;;;3.50;99.90;;;;;;6338199;22;20034;-87
2024/01/20 08:18:59;;;;;;;7.07;1.23;;;3.50;99.90;;;;;;6338550;22;20007;-88
2024/01/20 08:21:25;;;;;;;6.90;1.10;;;3.50;99.90;;;;;;6337426;22;20333;-89
2024/01/20 08:23:51;;;;;;;4.85;1.00;;;3.50;99.90;;;;;;6336852;22;20129;-87
2024/01/20 08:26:16;;;;;;;3.47;0.55;;;3.50;99.90;;;;;;6337145;22;20002;-90
2024/01/20 08:28:42;;;;;;;5.88;0.70;;;3.50;99.90;;;;;;6338505;22;20026;-87
2024/01/20 08:31:09;;;;;;;4.85;1.15;;;3.50;99.90;;;;;;6337495;22;20097;-89
2024/01/20 08:33:35;;;;;;;4.60;0.85;;;3.50;99.90;;;;;;6335536;22;20496;-90
2024/01/20 08:36:01;;;;;;;6.93;1.42;;;3.50;99.90;;;;;;6338021;22;20006;-88
2024/01/20 08:38:27;;;;;;;8.35;1.35;;;3.50;99.90;;;;;;6336466;22;20015;-86
2024/01/20 08:40:53;;;;;;;5.07;0.90;;;3.50;99.90;;;;;;6337217;22;20509;-87
2024/01/20 08:43:18;;;;;;;6.57;1.48;;;3.50;99.90;;;;;;6337486;22;20014;-88
2024/01/20 08:45:44;;;;;;;7.43;1.40;;;3.40;99.90;;;;;;6337804;22;20014;-86
2024/01/20 08:48:09;;;;;;;4.22;1.42;;;3.50;99.90;;;;;;6337997;22;20007;-86
2024/01/20 08:50:35;;;;;;;5.03;1.80;;;3.40;99.90;;;;;;6338548;22;20003;-86
2024/01/20 08:53:01;;;;;;;4.93;1.35;;;3.40;99.90;;;;;;6337058;22;20343;-86
2024/01/20 08:55:27;;;;;;;3.78;1.08;;;3.50;99.90;;;;;;6340396;22;20038;-87
2024/01/20 08:57:55;;;;;;;4.35;0.90;;;3.40;99.90;;;;;;6371606;22;20035;-86
2024/01/20 09:00:21;;;;;;;3.75;1.77;;;3.50;99.90;;;;;;6344209;22;20010;-87
2024/01/20 09:02:47;;;;;;;3.33;1.00;;;3.40;99.90;;;;;;6343952;22;20508;-86
2024/01/20 09:05:13;;;;;;;5.93;1.33;;;3.50;99.90;;;;;;6343365;22;20002;-88
2024/01/20 09:07:39;;;;;;;4.80;1.40;;;3.50;99.90;;;;;;6349344;22;20003;-86
2024/01/20 09:10:06;;;;;;;5.47;1.23;;;3.40;99.90;;;;;;6355378;22;20446;-85
2024/01/20 09:12:32;;;;;;;6.30;1.13;;;3.40;99.90;;;;;;6346882;22;20433;-87
2024/01/20 09:14:58;;;;;;;5.00;1.25;;;3.40;99.90;;;;;;6353709;22;20013;-87
2024/01/20 09:17:23;;;;;;;4.78;1.40;;;3.40;99.90;;;;;;6345965;22;20035;-85
2024/01/20 09:19:49;;;;;;;4.35;1.48;;;3.40;99.90;;;;;;6345001;22;20006;-87
2024/01/20 09:22:16;;;;;;;6.07;2.08;;;3.30;99.90;;;;;;6343985;22;20034;-87
2024/01/20 09:24:45;;;;;;;2.75;1.30;;;3.30;99.90;;;;;;6344366;22;20028;-87
2024/01/20 09:27:11;;;;;;;5.97;1.42;;;3.30;99.90;;;;;;6345470;22;20101;-89
2024/01/20 09:29:36;;;;;;;6.13;1.58;;;3.30;99.90;;;;;;6344275;22;20002;-88
2024/01/20 09:32:02;;;;;;;6.18;1.38;;;3.20;99.90;;;;;;6343716;22;20007;-89
2024/01/20 09:34:28;;;;;;;7.32;2.70;;;3.20;99.90;;;;;;6343247;22;19999;-88
2024/01/20 09:36:54;;;;;;;7.72;0.98;;;3.30;99.90;;;;;;6343241;22;20385;-87
2024/01/20 09:39:20;;;;;;;2.45;1.27;;;3.20;99.90;;;;;;6343377;22;20006;-87
2024/01/20 09:41:46;;;;;;;11.73;1.42;;;3.20;99.90;;;;;;6342648;22;20002;-86
2024/01/20 09:44:14;;;;;;;6.45;1.10;;;3.30;99.90;;;;;;6345785;22;20006;-86
2024/01/20 09:46:40;;;;;;;3.90;1.27;;;3.30;99.90;;;;;;6344084;22;20013;-86
2024/01/20 09:49:06;;;;;;;7.10;1.33;;;3.30;99.90;;;;;;6347860;22;20089;-86
2024/01/20 09:51:31;;;;;;;5.93;0.80;;;3.30;99.90;;;;;;6349626;22;20013;-86
2024/01/20 09:54:00;;;;;;;6.97;1.25;;;3.40;99.90;;;;;;6351247;22;20081;-88
2024/01/20 09:56:27;;;;;;;5.65;1.58;;;3.40;99.90;;;;;;6352116;22;20018;-87
2024/01/20 09:58:57;;;;;;;10.60;1.98;;;3.40;99.90;;;;;;6352187;22;20018;-88
2024/01/20 10:01:24;;;;;;;9.15;2.20;;;3.50;99.90;;;;;;6353678;22;20006;-88
2024/01/20 10:03:50;;;;;;;6.63;1.42;;;3.50;99.90;;;;;;6326205;22;20010;-88
2024/01/20 10:06:16;;;;;;;7.38;1.00;;;3.50;99.90;;;;;;6351563;22;19994;-88
2024/01/20 10:08:42;;;;;;;10.65;1.25;;;3.50;99.90;;;;;;6350814;22;20018;-87
2024/01/20 10:11:07;;;;;;;5.05;1.10;;;3.50;99.90;;;;;;6357115;22;20058;-87
2024/01/20 10:13:36;;;;;;;5.32;1.20;;;3.50;99.90;;;;;;6354207;22;20017;-86
2024/01/20 10:16:03;;;;;;;5.20;1.10;;;3.60;99.90;;;;;;6347174;22;20006;-87
2024/01/20 10:18:29;;;;;;;8.27;1.65;;;3.50;99.90;;;;;;6346197;22;20101;-87
2024/01/20 10:21:05;;;;;;;4.45;0.80;;;3.60;99.90;;;;;;6345568;22;19999;-88
2024/01/20 10:23:37;;;;;;;6.45;0.80;;;3.60;99.90;;;;;;6346665;22;20071;-87
2024/01/20 10:26:04;;;;;;;8.30;1.30;;;3.60;99.90;;;;;;6344371;22;20002;-89
2024/01/20 10:28:30;;;;;;;2.65;0.82;;;3.70;99.90;;;;;;6344790;22;20009;-88
2024/01/20 10:30:56;;;;;;;7.88;1.20;;;3.70;99.90;;;;;;6346964;22;20333;-88
2024/01/20 10:33:22;;;;;;;8.13;1.35;;;3.70;99.90;;;;;;6346897;22;20010;-88
2024/01/20 10:35:50;;;;;;;7.00;1.33;;;3.80;99.90;;;;;;6346172;22;19998;-89
2024/01/20 10:38:23;;;;;;;9.93;1.30;;;3.80;99.90;;;;;;6345901;22;20041;-89
2024/01/20 10:40:53;;;;;;;6.05;1.40;;;3.80;99.90;;;;;;6346131;22;20426;-88
2024/01/20 10:43:19;;;;;;;4.57;1.27;;;3.80;99.90;;;;;;6346958;22;20456;-90
2024/01/20 10:45:51;;;;;;;5.70;0.95;;;3.80;99.90;;;;;;6342665;22;19998;-91
2024/01/20 10:48:25;;;;;;;6.90;1.25;;;3.90;99.90;;;;;;6342701;22;20006;-88
2024/01/20 10:50:59;;;;;;;6.13;1.92;;;3.90;99.90;;;;;;6342869;22;19999;-89
2024/01/20 10:53:27;;;;;;;12.82;1.70;;;3.90;99.90;;;;;;6342782;22;20006;-89
2024/01/20 10:55:54;;;;;;;6.57;1.30;;;3.90;99.90;;;;;;6342868;22;20014;-89
2024/01/20 10:58:24;;;;;;;8.85;1.25;;;3.90;99.90;;;;;;6345316;22;20017;-88
2024/01/20 11:00:51;;;;;;;7.70;1.40;;;3.90;99.90;;;;;;6345747;22;20006;-89
2024/01/20 11:03:17;;;;;;;1.67;0.60;;;4.00;99.90;;;;;;6347086;22;20006;-89
2024/01/20 11:05:47;;;;;;;11.15;1.80;;;4.00;99.90;;;;;;6346379;22;19998;-88
2024/01/20 11:08:13;;;;;;;4.00;1.20;;;4.00;99.90;;;;;;6345780;22;20002;-88
2024/01/20 11:10:45;;;;;;;10.57;1.40;;;4.00;99.90;;;;;;6346797;22;19998;-89
2024/01/20 11:13:13;;;;;;;32.65;10.80;;;4.10;99.90;;;;;;6346530;22;20002;-89
2024/01/20 11:15:40;;;;;;;7.82;2.30;;;4.10;99.90;;;;;;6346924;22;20044;-89
2024/01/20 11:18:20;;;;;;;4.10;1.52;;;4.10;99.90;;;;;;6346067;22;20010;-88
2024/01/20 11:21:02;;;;;;;9.43;2.60;;;4.10;99.90;;;;;;6346724;22;20398;-89
2024/01/20 11:23:30;;;;;;;6.90;3.05;;;4.10;99.90;;;;;;6346291;22;19995;-89
2024/01/20 11:25:57;;;;;;;10.77;4.57;;;4.20;99.90;;;;;;6348199;22;20031;-89
2024/01/20 11:28:33;;;;;;;7.40;2.28;;;4.20;99.90;;;;;;6346041;22;20010;-88
2024/01/20 11:31:00;;;;;;;8.60;2.67;;;4.20;99.90;;;;;;6346153;22;20006;-89
2024/01/20 11:33:26;;;;;;;6.32;1.77;;;4.20;99.90;;;;;;6350782;22;20512;-88
2024/01/20 11:35:53;;;;;;;10.07;2.40;;;4.20;99.90;;;;;;6351109;22;20002;-89
2024/01/20 11:38:19;;;;;;;7.07;1.83;;;4.30;99.90;;;;;;6351468;22;20437;-90
2024/01/20 11:41:00;;;;;;;3.60;1.52;;;4.30;99.90;;;;;;6345935;22;19998;-89
2024/01/20 11:43:26;;;;;;;6.57;1.40;;;4.30;99.90;;;;;;6345313;22;20437;-88
2024/01/20 11:45:52;;;;;;;11.88;1.88;;;4.30;99.90;;;;;;6345287;22;20003;-90
2024/01/20 11:48:21;;;;;;;5.25;1.77;;;4.30;99.90;;;;;;6344916;22;20029;-89
2024/01/20 11:50:47;;;;;;;6.63;1.63;;;4.40;99.90;;;;;;6345744;22;20006;-89
2024/01/20 11:53:13;;;;;;;7.43;1.67;;;4.40;99.90;;;;;;6345542;22;20006;-88
2024/01/20 11:55:38;;;;;;;4.78;1.42;;;4.40;99.90;;;;;;6345837;22;20307;-89
2024/01/20 11:58:04;;;;;;;13.38;1.80;;;4.40;99.90;;;;;;6346208;22;20025;-91
2024/01/20 12:00:30;;;;;;;4.28;1.30;;;4.40;99.90;;;;;;6345952;22;20505;-89
2024/01/20 12:02:56;;;;;;;6.75;1.33;;;4.40;99.90;;;;;;6346048;22;20002;-89
2024/01/20 12:05:25;;;;;;;6.72;1.40;;;4.40;99.90;;;;;;6345475;22;20009;-90
2024/01/20 12:07:51;;;;;;;8.00;1.60;;;4.40;99.90;;;;;;6320023;22;20006;-89
2024/01/20 12:10:20;;;;;;;11.52;2.22;;;4.50;99.90;;;;;;6345935;22;20037;-89
2024/01/20 12:12:46;;;;;;;8.77;1.45;;;4.50;99.90;;;;;;6345712;22;20006;-89
2024/01/20 12:15:14;;;;;;;6.95;1.77;;;4.50;99.90;;;;;;6345364;22;20006;-89
2024/01/20 12:17:44;;;;;;;11.68;2.03;;;4.50;99.90;;;;;;6346573;22;20017;-90
2024/01/20 12:20:10;;;;;;;3.55;1.38;;;4.60;99.90;;;;;;6346750;22;20038;-90
2024/01/20 12:22:37;;;;;;;6.07;1.30;;;4.60;99.90;;;;;;6320169;22;20009;-89
2024/01/20 12:25:03;;;;;;;7.22;1.73;;;4.60;99.90;;;;;;6320204;22;20010;-90
2024/01/20 12:27:29;;;;;;;8.98;1.70;;;4.60;99.90;;;;;;6345937;22;20002;-90
2024/01/20 12:29:55;;;;;;;12.23;1.80;;;4.70;99.90;;;;;;6345960;22;20026;-90
2024/01/20 12:32:21;;;;;;;9.70;1.92;;;4.70;99.90;;;;;;6345445;22;20036;-90
2024/01/20 12:34:47;;;;;;;8.57;2.00;;;4.70;99.90;;;;;;6345613;22;20464;-90
2024/01/20 12:37:12;;;;;;;11.15;1.80;;;4.70;99.90;;;;;;6346028;22;20013;-90
2024/01/20 12:39:38;;;;;;;10.50;2.22;;;4.70;99.90;;;;;;6345401;22;20006;-89
2024/01/20 12:42:04;;;;;;;8.63;1.70;;;4.70;99.90;;;;;;6347971;22;19999;-90
2024/01/20 12:44:30;;;;;;;7.20;2.15;;;4.80;99.90;;;;;;6354922;22;20013;-90
2024/01/20 12:46:56;;;;;;;10.13;2.92;;;4.80;99.90;;;;;;6353301;22;20013;-91
2024/01/20 12:49:21;;;;;;;6.55;1.65;;;4.80;99.90;;;;;;6347431;22;20010;-89
2024/01/20 12:51:48;;;;;;;5.72;1.80;;;4.90;99.90;;;;;;6344852;22;20027;-89